Terminal Aerodrome Forecast
Issued by NWS

Current Version | Previous Version | Graphics & Text | Print | Product List | Glossary On
Versions: 1 2 3 4 5 6 7 8 9 10 11 12 13 14 15 16 17 18 19 20 21 22
000
FTUS41 KRLX 270546
TAFCKB
TAF
KCKB 270546Z 2706/2806 09004KT 6SM SHRA BR OVC090
     FM270800 10004KT 3SM SHRA BR VCTS OVC050CB
      TEMPO 2708/2712 2SM SHRA BR BKN025
     FM271400 13007KT 3SM SHRA BR VCTS OVC025CB
     FM271700 19009KT 5SM SHRA BR VCTS BKN050CB
     FM271900 20010G15KT P6SM SHRA VCTS BKN050CB
     FM272200 21008KT P6SM BKN035=

USA.gov is the U.S. government's official web portal to all federal, state and local government web resources and services.